Arbyrd, MO

7:18 AM CDT on August 27, 2014 (GMT -0500)
Blytheville Municipal | Change Station
CLOSE
Current Station
Airport
Location: Blytheville Muni Airport,
Elevation: 256 ft
Nearby Weather Stations

Elev 256 ft 35.94 °N, 89.83 °W | Updated 25 minutes ago

Clear
Clear
72 °F
Feels Like 72 °F
N
0
Wind Variable Wind from North

Today
High -- | Low -- °F
--% Chance of Precip.
Yesterday
High -- | Low -- °F
Precip. -- in
6:28 AM 7:35 PM
Waxing Crescent, 3% visible
Pressure 30.08 in
Visibility 10.0 miles
Clouds Clear
Dew Point 71 °F
Humidity 97%
Rainfall 0.00 in
Snow Depth Not available.
UV 0 out of 12
Pollen 10.00 out of 12
Air Quality Not available.
Flu Activity Not available.
METAR KHKA 271153Z AUTO 00000KT 10SM CLR 22/22 A3009 RMK AO2 SLP185 T02220217 10239 20217 53008

More Conditions Fewer Conditions

Pressure 30.08 in
Visibility 10.0 miles
Clouds Clear
Dew Point 71 °F
Humidity 97%
Rainfall 0.00 in
Snow Depth Not available.
UV 0 out of 12
Pollen 10.00 out of 12
Air Quality Not available.
Flu Activity Not available.
METAR KHKA 271153Z AUTO 00000KT 10SM CLR 22/22 A3009 RMK AO2 SLP185 T02220217 10239 20217 53008

More Conditions Fewer Conditions

10-Day Weather Forecast

Almanac

Astronomy

Aug. 27, 2014 Rise Set
Actual Time 6:28 AM CDT 7:35 PM CDT
Civil Twilight 6:02 AM CDT 8:01 PM CDT
Nautical Twilight 5:30 AM CDT 8:33 PM CDT
Astronomical Twilight 4:57 AM CDT 9:05 PM CDT
Moon 8:19 AM CDT 8:33 PM CDT
Length of Visible Light 13h 59m
Length of Day
13h 06m
Tomorrow will be 2m 9s shorter.
Waxing Crescent, 3% of the Moon is Illuminated
Today
Waxing Crescent
Sep 2
First Quarter
Sep 8
Full
Sep 15
Last Quarter
Sep 24
New

Today's Extremes

State Highs State Lows

Community

WunderPhotos

Upload Photos

1,747,674 photos uploaded!

Nearby

Snow Depth

Station Depth Elevation
No new snow has been reported.

Earthquake Activity

City Distance Mag. Time & Date
No recent earthquake activity has been reported nearby.
Minimum magnitude displayed is 2.5.

Coastal Water Temperatures

Place Temperature
No Stations Reporting

Nearby Weather Stations